Time;durP1;ratioP1;P1;durP2;ratioP2;P2;SDS_P1;SDS_P2;PMS_P1;PMS_P2;Temp;Humidity;BMP_temperature;BMP_pressure;BME280_temperature;BME280_humidity;BME280_pressure;Samples;Min_cycle;Max_cycle;Signal;HPM_P1;HPM_P2
2022/09/13 00:00:53;;;;;;;4.07;2.20;;;;;;;;;;2075659;28;20037;-65
2022/09/13 00:02:12;;;;;;;1.88;1.70;;;;;;;;;;2076791;28;20021;-65
2022/09/13 00:03:31;;;;;;;2.53;1.80;;;;;;;;;;2076363;28;20394;-65
2022/09/13 00:04:50;;;;;;;2.85;1.70;;;;;;;;;;2074232;28;20390;-65
2022/09/13 00:06:10;;;;;;;2.55;2.13;;;;;;;;;;2075132;28;20441;-64
2022/09/13 00:07:29;;;;;;;4.32;2.20;;;;;;;;;;2076351;28;20088;-64
2022/09/13 00:08:48;;;;;;;3.05;2.10;;;;;;;;;;2079251;28;20029;-65
2022/09/13 00:10:07;;;;;;;2.30;2.10;;;;;;;;;;2075086;28;20164;-65
2022/09/13 00:11:28;;;;;;;2.72;1.63;;;;;;;;;;2074223;28;20456;-65
2022/09/13 00:12:47;;;;;;;3.75;1.63;;;;;;;;;;2076624;28;20445;-66
2022/09/13 00:14:06;;;;;;;1.80;1.65;;;;;;;;;;2075385;28;20025;-65
2022/09/13 00:15:25;;;;;;;4.07;2.10;;;;;;;;;;2074449;28;20121;-65
2022/09/13 00:16:44;;;;;;;2.90;1.77;;;;;;;;;;2078274;28;20498;-66
2022/09/13 00:18:03;;;;;;;2.00;1.80;;;;;;;;;;2076091;28;20041;-64
2022/09/13 00:19:22;;;;;;;3.00;2.25;;;;;;;;;;2077243;28;20021;-64
2022/09/13 00:20:41;;;;;;;2.25;1.48;;;;;;;;;;2074616;28;20033;-66
2022/09/13 00:22:00;;;;;;;5.28;2.15;;;;;;;;;;2071541;28;20410;-65
2022/09/13 00:23:19;;;;;;;2.83;2.60;;;;;;;;;;2076792;28;20038;-64
2022/09/13 00:24:38;;;;;;;2.63;2.30;;;;;;;;;;2075795;28;20057;-64
2022/09/13 00:26:03;;;;;;;2.58;2.38;;;;;;;;;;2073833;28;20030;-65
2022/09/13 00:27:23;;;;;;;2.95;2.28;;;;;;;;;;2075329;28;20034;-66
2022/09/13 00:28:44;;;;;;;4.30;2.40;;;;;;;;;;2076774;28;20034;-67
2022/09/13 00:30:04;;;;;;;3.03;2.40;;;;;;;;;;2075176;28;20126;-65
2022/09/13 00:31:26;;;;;;;3.42;1.80;;;;;;;;;;2075537;28;20050;-64
2022/09/13 00:32:45;;;;;;;4.78;2.50;;;;;;;;;;2078681;28;20501;-65
2022/09/13 00:34:04;;;;;;;2.08;1.98;;;;;;;;;;2076187;28;20029;-65
2022/09/13 00:35:23;;;;;;;2.30;2.10;;;;;;;;;;2073207;28;20030;-65
2022/09/13 00:36:42;;;;;;;4.38;1.70;;;;;;;;;;2078964;28;20523;-65
2022/09/13 00:38:01;;;;;;;4.35;2.20;;;;;;;;;;2076310;28;20094;-65
2022/09/13 00:39:21;;;;;;;2.50;1.85;;;;;;;;;;2077421;28;20391;-65
2022/09/13 00:40:40;;;;;;;6.78;2.35;;;;;;;;;;2075375;28;20025;-65
2022/09/13 00:41:59;;;;;;;2.45;1.90;;;;;;;;;;2076053;28;20026;-65
2022/09/13 00:43:19;;;;;;;2.15;2.03;;;;;;;;;;2075009;28;20448;-65
2022/09/13 00:44:58;;;;;;;5.68;2.22;;;;;;;;;;2075358;28;20038;-64
2022/09/13 00:46:20;;;;;;;2.30;2.10;;;;;;;;;;2072090;28;20029;-65
2022/09/13 00:47:41;;;;;;;2.22;2.00;;;;;;;;;;2075058;28;20120;-65
2022/09/13 00:49:06;;;;;;;2.47;2.13;;;;;;;;;;2069670;28;20026;-65
2022/09/13 00:50:31;;;;;;;2.42;1.83;;;;;;;;;;2069729;28;21256;-66
2022/09/13 00:51:52;;;;;;;3.40;2.28;;;;;;;;;;2074500;28;20112;-65
2022/09/13 00:53:21;;;;;;;2.00;1.73;;;;;;;;;;2077934;28;20108;-65
2022/09/13 00:54:47;;;;;;;2.72;2.30;;;;;;;;;;2076295;28;20030;-65
2022/09/13 00:56:16;;;;;;;2.65;2.15;;;;;;;;;;2076639;28;20025;-65
2022/09/13 00:57:35;;;;;;;5.18;2.50;;;;;;;;;;2074351;28;20030;-65
2022/09/13 00:59:00;;;;;;;3.10;1.90;;;;;;;;;;2077443;28;20041;-65
2022/09/13 01:00:20;;;;;;;2.20;2.00;;;;;;;;;;2071272;28;20034;-65
2022/09/13 01:01:42;;;;;;;2.05;1.75;;;;;;;;;;2075987;28;20037;-64
2022/09/13 01:03:04;;;;;;;2.35;1.98;;;;;;;;;;2076051;28;20436;-64
2022/09/13 01:04:25;;;;;;;2.13;1.83;;;;;;;;;;2074953;28;20049;-64
2022/09/13 01:05:47;;;;;;;2.88;1.90;;;;;;;;;;2072078;28;20046;-64
2022/09/13 01:07:08;;;;;;;2.28;2.08;;;;;;;;;;2077172;28;20104;-64
2022/09/13 01:08:30;;;;;;;2.13;2.00;;;;;;;;;;2074665;28;20113;-64
2022/09/13 01:09:50;;;;;;;4.68;2.67;;;;;;;;;;2073821;28;20483;-65
2022/09/13 01:11:11;;;;;;;2.92;2.03;;;;;;;;;;2074889;28;20066;-64
2022/09/13 01:12:32;;;;;;;1.95;1.85;;;;;;;;;;2070620;28;20037;-64
2022/09/13 01:13:53;;;;;;;3.33;1.65;;;;;;;;;;2074412;28;20025;-64
2022/09/13 01:15:11;;;;;;;1.70;1.60;;;;;;;;;;2076089;28;20025;-64
2022/09/13 01:16:30;;;;;;;2.65;1.83;;;;;;;;;;2077741;28;20022;-64
2022/09/13 01:17:51;;;;;;;2.38;1.50;;;;;;;;;;2075835;28;20072;-63
2022/09/13 01:19:10;;;;;;;3.78;2.17;;;;;;;;;;2078176;28;20502;-64
2022/09/13 01:20:44;;;;;;;3.33;1.90;;;;;;;;;;2079107;28;20025;-64
2022/09/13 01:22:14;;;;;;;1.85;1.75;;;;;;;;;;2078058;28;20034;-63
2022/09/13 01:23:56;;;;;;;2.03;1.88;;;;;;;;;;2077539;28;20030;-64
2022/09/13 01:25:34;;;;;;;1.70;1.60;;;;;;;;;;2078505;28;20025;-64
2022/09/13 01:27:05;;;;;;;4.03;1.90;;;;;;;;;;2076648;28;20034;-64
2022/09/13 01:28:24;;;;;;;3.22;1.60;;;;;;;;;;2077120;28;20034;-64
2022/09/13 01:29:43;;;;;;;3.38;1.80;;;;;;;;;;2076653;28;20437;-63
2022/09/13 01:31:07;;;;;;;3.25;1.73;;;;;;;;;;2076959;28;20041;-64
2022/09/13 01:32:35;;;;;;;5.80;1.95;;;;;;;;;;2078163;28;20026;-64
2022/09/13 01:33:59;;;;;;;3.60;1.80;;;;;;;;;;2077038;28;20025;-64
2022/09/13 01:35:22;;;;;;;3.28;1.80;;;;;;;;;;2076842;28;20046;-65
2022/09/13 01:37:02;;;;;;;4.65;2.00;;;;;;;;;;2077137;28;20037;-63
2022/09/13 01:38:40;;;;;;;3.83;1.58;;;;;;;;;;2076295;28;20070;-64
2022/09/13 01:40:08;;;;;;;2.63;1.83;;;;;;;;;;2077141;28;20030;-64
2022/09/13 01:41:36;;;;;;;2.88;1.80;;;;;;;;;;2074331;28;20026;-64
2022/09/13 01:43:21;;;;;;;4.97;1.50;;;;;;;;;;2078147;28;20501;-63
2022/09/13 01:44:52;;;;;;;3.40;2.33;;;;;;;;;;2056511;28;20949;-64
2022/09/13 01:46:14;;;;;;;2.30;1.60;;;;;;;;;;2074006;28;20037;-69
2022/09/13 01:47:49;;;;;;;3.28;1.65;;;;;;;;;;2077889;28;20033;-64
2022/09/13 01:49:17;;;;;;;4.30;1.73;;;;;;;;;;2075146;28;20406;-65
2022/09/13 01:50:36;;;;;;;3.17;1.50;;;;;;;;;;2076201;28;20030;-65
2022/09/13 01:52:02;;;;;;;2.92;1.92;;;;;;;;;;2072702;28;20030;-64
2022/09/13 01:53:23;;;;;;;2.47;1.50;;;;;;;;;;2078331;28;20022;-64
2022/09/13 01:55:03;;;;;;;5.70;1.80;;;;;;;;;;2079326;28;20025;-64
2022/09/13 01:56:26;;;;;;;2.00;1.58;;;;;;;;;;2073193;28;20018;-64
2022/09/13 01:57:44;;;;;;;2.28;2.08;;;;;;;;;;2072297;28;20030;-65
2022/09/13 01:59:07;;;;;;;4.00;1.70;;;;;;;;;;2077032;28;20029;-65
2022/09/13 02:00:27;;;;;;;2.47;1.67;;;;;;;;;;2070649;28;20056;-64
2022/09/13 02:01:51;;;;;;;2.08;1.88;;;;;;;;;;2071777;28;20498;-65
2022/09/13 02:03:09;;;;;;;;;;;;;;;;;;2075931;28;20017;-65
2022/09/13 02:04:33;;;;;;;1.83;1.73;;;;;;;;;;2075465;28;19996;-65
2022/09/13 02:06:00;;;;;;;4.20;2.03;;;;;;;;;;2073193;28;20030;-65
2022/09/13 02:07:23;;;;;;;1.52;1.42;;;;;;;;;;2077867;28;20026;-66
2022/09/13 02:08:41;;;;;;;;;;;;;;;;;;2078229;28;20054;-65
2022/09/13 02:10:07;;;;;;;2.28;1.63;;;;;;;;;;2075503;28;19913;-66
2022/09/13 02:11:26;;;;;;;1.63;1.52;;;;;;;;;;2076199;28;20120;-65
2022/09/13 02:12:46;;;;;;;2.20;1.80;;;;;;;;;;2083662;28;20032;-65
2022/09/13 02:14:08;;;;;;;5.20;1.90;;;;;;;;;;2077276;28;20037;-66
2022/09/13 02:15:37;;;;;;;1.77;1.63;;;;;;;;;;2075551;28;20041;-66
2022/09/13 02:17:16;;;;;;;1.83;1.73;;;;;;;;;;2077620;28;20026;-65
2022/09/13 02:18:37;;;;;;;2.30;1.73;;;;;;;;;;2078097;28;20033;-65
2022/09/13 02:19:59;;;;;;;1.77;1.67;;;;;;;;;;2076675;28;20026;-65
2022/09/13 02:21:20;;;;;;;2.08;1.88;;;;;;;;;;2079384;28;20026;-63
2022/09/13 02:22:43;;;;;;;2.88;1.98;;;;;;;;;;2074400;28;20034;-65
2022/09/13 02:24:02;;;;;;;;;;;;;;;;;;2078849;28;20068;-64
2022/09/13 02:25:23;;;;;;;2.50;2.05;;;;;;;;;;2079633;28;19909;-66
2022/09/13 02:26:45;;;;;;;2.17;1.70;;;;;;;;;;2075123;28;20370;-64
2022/09/13 02:28:06;;;;;;;2.15;1.65;;;;;;;;;;2074942;28;21264;-65
2022/09/13 02:29:27;;;;;;;4.93;1.80;;;;;;;;;;2073843;28;20413;-65
2022/09/13 02:30:48;;;;;;;2.63;1.70;;;;;;;;;;2075420;28;20041;-64
2022/09/13 02:32:20;;;;;;;1.90;1.80;;;;;;;;;;2075705;28;20489;-64
2022/09/13 02:33:45;;;;;;;2.08;1.88;;;;;;;;;;2073817;28;20049;-64
2022/09/13 02:35:22;;;;;;;3.17;1.80;;;;;;;;;;2077634;28;20022;-65
2022/09/13 02:36:44;;;;;;;3.40;1.77;;;;;;;;;;2075819;28;20026;-64
2022/09/13 02:38:19;;;;;;;2.42;1.60;;;;;;;;;;2074953;28;20334;-64
2022/09/13 02:39:49;;;;;;;2.30;1.98;;;;;;;;;;2077040;28;20033;-65
2022/09/13 02:41:14;;;;;;;2.08;1.92;;;;;;;;;;2077196;28;20014;-64
2022/09/13 02:42:36;;;;;;;3.63;1.67;;;;;;;;;;2076437;28;20042;-64
2022/09/13 02:44:05;;;;;;;2.15;1.90;;;;;;;;;;2074569;28;20457;-63
2022/09/13 02:45:28;;;;;;;3.92;2.10;;;;;;;;;;2076398;28;20034;-64
2022/09/13 02:47:07;;;;;;;3.20;1.83;;;;;;;;;;2074173;28;20038;-64
2022/09/13 02:48:29;;;;;;;1.90;1.60;;;;;;;;;;2075244;28;20679;-64
2022/09/13 02:49:50;;;;;;;2.53;1.50;;;;;;;;;;2077548;28;20069;-64
2022/09/13 02:51:09;;;;;;;1.95;1.85;;;;;;;;;;2077244;28;20485;-64
2022/09/13 02:52:35;;;;;;;2.55;1.75;;;;;;;;;;2076721;28;20033;-65
2022/09/13 02:53:58;;;;;;;1.92;1.55;;;;;;;;;;2074667;28;20025;-64
2022/09/13 02:55:22;;;;;;;1.77;1.67;;;;;;;;;;2075236;28;20033;-65
2022/09/13 02:56:51;;;;;;;1.83;1.73;;;;;;;;;;2075424;28;20037;-65
2022/09/13 02:58:13;;;;;;;3.35;2.25;;;;;;;;;;2077502;28;20045;-64
2022/09/13 02:59:33;;;;;;;4.15;2.00;;;;;;;;;;2076428;28;20041;-65
2022/09/13 03:00:52;;;;;;;2.42;1.60;;;;;;;;;;2069919;28;20030;-65
2022/09/13 03:02:13;;;;;;;3.03;1.80;;;;;;;;;;2072726;28;20486;-65
2022/09/13 03:03:31;;;;;;;2.85;1.77;;;;;;;;;;2076286;28;20072;-65
2022/09/13 03:04:50;;;;;;;3.90;1.67;;;;;;;;;;2079736;28;20112;-64
2022/09/13 03:06:09;;;;;;;4.05;1.90;;;;;;;;;;2078202;28;20026;-64
2022/09/13 03:07:29;;;;;;;1.77;1.58;;;;;;;;;;2078054;28;20447;-64
2022/09/13 03:08:49;;;;;;;3.80;1.88;;;;;;;;;;2074891;28;20042;-65
2022/09/13 03:10:13;;;;;;;2.85;1.70;;;;;;;;;;2078584;28;20030;-64
2022/09/13 03:11:38;;;;;;;2.47;1.65;;;;;;;;;;2076045;28;20116;-64
2022/09/13 03:13:26;;;;;;;1.67;1.55;;;;;;;;;;2076343;28;20104;-64
2022/09/13 03:14:53;;;;;;;1.80;1.70;;;;;;;;;;2072433;28;20029;-64
2022/09/13 03:16:18;;;;;;;3.15;1.77;;;;;;;;;;2076834;28;20378;-65
2022/09/13 03:17:57;;;;;;;1.98;1.80;;;;;;;;;;2074900;28;20025;-65
2022/09/13 03:19:48;;;;;;;1.80;1.70;;;;;;;;;;2077157;28;20843;-65
2022/09/13 03:21:19;;;;;;;2.75;1.80;;;;;;;;;;2063142;28;20030;-65
2022/09/13 03:22:57;;;;;;;2.83;1.88;;;;;;;;;;2076193;28;20033;-65
2022/09/13 03:24:16;;;;;;;2.13;1.92;;;;;;;;;;2076035;28;20038;-65
2022/09/13 03:25:41;;;;;;;4.55;1.80;;;;;;;;;;2077723;28;20026;-65
2022/09/13 03:27:19;;;;;;;2.65;1.88;;;;;;;;;;2072954;28;20037;-65
2022/09/13 03:28:47;;;;;;;2.85;2.03;;;;;;;;;;2075473;28;20104;-65
2022/09/13 03:30:08;;;;;;;4.18;1.60;;;;;;;;;;2073931;28;20029;-66
2022/09/13 03:31:34;;;;;;;2.85;1.80;;;;;;;;;;2075170;28;20033;-66
2022/09/13 03:32:59;;;;;;;2.13;1.98;;;;;;;;;;2077163;28;20537;-66
2022/09/13 03:34:37;;;;;;;4.47;2.13;;;;;;;;;;2076168;28;20486;-65
2022/09/13 03:36:02;;;;;;;1.73;1.63;;;;;;;;;;2078319;28;20030;-65
2022/09/13 03:37:36;;;;;;;2.03;1.63;;;;;;;;;;2077728;28;20517;-64
2022/09/13 03:38:59;;;;;;;3.63;2.28;;;;;;;;;;2077594;28;20029;-64
2022/09/13 03:40:21;;;;;;;2.38;1.75;;;;;;;;;;2078391;28;20568;-64
2022/09/13 03:41:42;;;;;;;1.65;1.55;;;;;;;;;;2072316;28;20043;-65
2022/09/13 03:43:08;;;;;;;3.03;1.90;;;;;;;;;;2075804;28;20493;-64
2022/09/13 03:44:28;;;;;;;1.98;1.85;;;;;;;;;;2080489;28;20037;-64
2022/09/13 03:45:58;;;;;;;1.98;1.88;;;;;;;;;;2079235;28;20034;-64
2022/09/13 03:47:17;;;;;;;1.58;1.48;;;;;;;;;;2074291;28;20026;-64
2022/09/13 03:48:38;;;;;;;3.42;2.10;;;;;;;;;;2076177;28;20037;-65
2022/09/13 03:49:57;;;;;;;2.30;1.75;;;;;;;;;;2076727;28;20572;-64
2022/09/13 03:51:16;;;;;;;2.78;1.98;;;;;;;;;;2075707;28;21768;-65
2022/09/13 03:52:35;;;;;;;3.15;2.00;;;;;;;;;;2076834;28;20037;-64
2022/09/13 03:53:58;;;;;;;4.13;1.70;;;;;;;;;;2074642;28;20382;-65
2022/09/13 03:55:19;;;;;;;1.95;1.75;;;;;;;;;;2073456;28;21009;-64
2022/09/13 03:56:37;;;;;;;4.28;1.90;;;;;;;;;;2069885;28;20034;-65
2022/09/13 03:57:56;;;;;;;3.95;2.33;;;;;;;;;;2073344;28;20042;-64
2022/09/13 03:59:15;;;;;;;2.30;2.00;;;;;;;;;;2072974;28;20054;-65
2022/09/13 04:00:34;;;;;;;2.25;1.77;;;;;;;;;;2072737;28;20065;-65
2022/09/13 04:01:53;;;;;;;2.22;1.95;;;;;;;;;;2072040;28;20267;-65
2022/09/13 04:03:12;;;;;;;2.55;1.90;;;;;;;;;;2076474;28;20030;-64
2022/09/13 04:04:32;;;;;;;3.42;1.98;;;;;;;;;;2073827;28;20033;-64
2022/09/13 04:05:51;;;;;;;2.17;1.95;;;;;;;;;;2075408;28;20101;-65
2022/09/13 04:07:11;;;;;;;1.90;1.70;;;;;;;;;;2074246;28;20022;-65
2022/09/13 04:08:31;;;;;;;3.15;1.90;;;;;;;;;;2076287;28;20112;-65
2022/09/13 04:09:50;;;;;;;2.25;2.05;;;;;;;;;;2078611;28;20042;-64
2022/09/13 04:11:09;;;;;;;3.13;1.80;;;;;;;;;;2074900;28;20026;-65
2022/09/13 04:12:30;;;;;;;2.70;2.30;;;;;;;;;;2076597;28;20125;-64
2022/09/13 04:13:49;;;;;;;2.42;2.05;;;;;;;;;;2074960;28;20033;-65
2022/09/13 04:15:08;;;;;;;5.70;2.00;;;;;;;;;;2077175;28;20112;-65
2022/09/13 04:16:27;;;;;;;2.63;1.90;;;;;;;;;;2074480;28;20413;-65
2022/09/13 04:17:47;;;;;;;2.25;2.05;;;;;;;;;;2077131;28;20417;-65
2022/09/13 04:19:06;;;;;;;2.25;2.05;;;;;;;;;;2076307;28;20045;-65
2022/09/13 04:20:25;;;;;;;3.97;2.15;;;;;;;;;;2071585;28;20069;-66
2022/09/13 04:21:45;;;;;;;2.72;2.53;;;;;;;;;;2073509;28;20390;-65
2022/09/13 04:23:04;;;;;;;1.90;1.80;;;;;;;;;;2074752;28;20042;-65
2022/09/13 04:24:25;;;;;;;3.92;2.10;;;;;;;;;;2074719;28;20037;-65
2022/09/13 04:25:45;;;;;;;4.10;2.20;;;;;;;;;;2077190;28;20029;-65
2022/09/13 04:27:04;;;;;;;5.90;2.15;;;;;;;;;;2072065;28;20026;-66
2022/09/13 04:28:22;;;;;;;4.65;2.33;;;;;;;;;;2073381;28;20034;-65
2022/09/13 04:29:41;;;;;;;3.42;2.30;;;;;;;;;;2070944;28;20029;-66
2022/09/13 04:31:00;;;;;;;5.13;2.08;;;;;;;;;;2075053;28;20112;-66
2022/09/13 04:32:19;;;;;;;4.25;2.45;;;;;;;;;;2074763;28;20069;-65
2022/09/13 04:33:40;;;;;;;3.47;2.42;;;;;;;;;;2074286;28;20481;-66
2022/09/13 04:34:59;;;;;;;3.65;2.15;;;;;;;;;;2065684;28;20041;-65
2022/09/13 04:36:19;;;;;;;2.10;2.00;;;;;;;;;;2071798;28;20029;-66
2022/09/13 04:37:38;;;;;;;4.47;2.30;;;;;;;;;;2073341;28;20033;-65
2022/09/13 04:38:58;;;;;;;3.60;2.42;;;;;;;;;;2076598;28;20069;-65
2022/09/13 04:40:17;;;;;;;4.35;2.00;;;;;;;;;;2075608;28;20037;-65
2022/09/13 04:41:36;;;;;;;2.63;2.42;;;;;;;;;;2074574;28;20025;-65
2022/09/13 04:42:55;;;;;;;2.13;1.95;;;;;;;;;;2075168;28;20026;-65
2022/09/13 04:44:15;;;;;;;2.33;2.03;;;;;;;;;;2077705;28;20481;-64
2022/09/13 04:45:35;;;;;;;4.30;2.30;;;;;;;;;;2074409;28;20038;-65
2022/09/13 04:46:54;;;;;;;2.45;2.22;;;;;;;;;;2075964;28;20042;-64
2022/09/13 04:48:14;;;;;;;4.10;2.50;;;;;;;;;;2076851;28;20481;-64
2022/09/13 04:49:33;;;;;;;2.40;2.00;;;;;;;;;;2077078;28;20037;-64
2022/09/13 04:50:52;;;;;;;3.90;2.15;;;;;;;;;;2077694;28;20022;-64
2022/09/13 04:52:11;;;;;;;2.22;2.03;;;;;;;;;;2076661;28;20029;-64
2022/09/13 04:53:30;;;;;;;2.72;1.92;;;;;;;;;;2079601;28;20021;-65
2022/09/13 04:54:49;;;;;;;3.63;2.13;;;;;;;;;;2075962;28;20045;-65
2022/09/13 04:56:09;;;;;;;2.40;2.13;;;;;;;;;;2077723;28;20025;-66
2022/09/13 04:57:29;;;;;;;5.43;1.90;;;;;;;;;;2075643;28;20501;-64
2022/09/13 04:58:52;;;;;;;2.65;2.08;;;;;;;;;;2071931;28;20029;-65
2022/09/13 05:00:11;;;;;;;2.83;1.90;;;;;;;;;;2063167;28;20037;-65
2022/09/13 05:01:30;;;;;;;2.70;2.15;;;;;;;;;;2061606;28;20022;-65
2022/09/13 05:02:53;;;;;;;2.30;1.95;;;;;;;;;;2069616;28;20442;-65
2022/09/13 05:04:12;;;;;;;2.42;2.22;;;;;;;;;;2072648;28;20034;-66
2022/09/13 05:05:31;;;;;;;2.25;1.85;;;;;;;;;;2066059;28;20108;-66
2022/09/13 05:06:51;;;;;;;4.22;2.22;;;;;;;;;;2068880;28;20614;-66
2022/09/13 05:08:09;;;;;;;1.85;1.75;;;;;;;;;;2072633;28;20053;-65
2022/09/13 05:09:28;;;;;;;3.80;1.90;;;;;;;;;;2080345;28;20017;-65
2022/09/13 05:10:47;;;;;;;3.15;2.00;;;;;;;;;;2071259;28;20045;-66
2022/09/13 05:12:06;;;;;;;1.80;1.63;;;;;;;;;;2076343;28;20034;-65
2022/09/13 05:13:25;;;;;;;3.47;2.00;;;;;;;;;;2077281;28;20061;-65
2022/09/13 05:14:44;;;;;;;4.68;2.10;;;;;;;;;;2081377;28;20025;-66
2022/09/13 05:16:05;;;;;;;2.97;1.90;;;;;;;;;;2075898;28;20037;-69
2022/09/13 05:17:24;;;;;;;2.00;1.88;;;;;;;;;;2076904;28;20572;-66
2022/09/13 05:18:43;;;;;;;2.70;1.95;;;;;;;;;;2078826;28;20030;-64
2022/09/13 05:20:04;;;;;;;5.93;1.63;;;;;;;;;;2075524;28;20037;-65
2022/09/13 05:21:23;;;;;;;2.75;2.08;;;;;;;;;;2073648;28;20302;-65
2022/09/13 05:22:42;;;;;;;2.05;1.85;;;;;;;;;;2076838;28;20026;-65
2022/09/13 05:24:01;;;;;;;2.22;1.83;;;;;;;;;;2079825;28;20029;-65
2022/09/13 05:25:20;;;;;;;2.92;2.33;;;;;;;;;;2078341;28;20388;-65
2022/09/13 05:26:39;;;;;;;3.28;2.28;;;;;;;;;;2074275;28;20026;-65
2022/09/13 05:27:58;;;;;;;3.72;1.90;;;;;;;;;;2076239;28;20038;-68
2022/09/13 05:29:17;;;;;;;5.30;1.55;;;;;;;;;;2070931;28;20026;-68
2022/09/13 05:30:36;;;;;;;4.20;1.90;;;;;;;;;;2070486;28;20473;-67
2022/09/13 05:31:55;;;;;;;2.40;1.70;;;;;;;;;;2075581;28;20034;-66
2022/09/13 05:33:13;;;;;;;4.55;2.00;;;;;;;;;;2076993;28;20029;-66
2022/09/13 05:34:32;;;;;;;2.30;2.10;;;;;;;;;;2075235;28;20037;-69
2022/09/13 05:35:52;;;;;;;1.70;1.58;;;;;;;;;;2072082;28;20037;-67
2022/09/13 05:37:11;;;;;;;4.85;1.70;;;;;;;;;;2072720;28;20331;-66
2022/09/13 05:38:30;;;;;;;3.55;2.35;;;;;;;;;;2075835;28;20030;-66
2022/09/13 05:39:49;;;;;;;4.57;1.95;;;;;;;;;;2076811;28;20029;-66
2022/09/13 05:41:08;;;;;;;2.95;2.05;;;;;;;;;;2074569;28;20390;-64
2022/09/13 05:42:27;;;;;;;4.22;2.58;;;;;;;;;;2077603;28;20037;-65
2022/09/13 05:43:47;;;;;;;4.68;2.05;;;;;;;;;;2076422;28;20042;-64
2022/09/13 05:45:06;;;;;;;3.67;2.13;;;;;;;;;;2073553;28;20021;-65
2022/09/13 05:46:25;;;;;;;5.65;1.90;;;;;;;;;;2074664;28;20025;-65
2022/09/13 05:47:44;;;;;;;3.65;2.15;;;;;;;;;;2074694;28;20437;-65
2022/09/13 05:49:03;;;;;;;3.00;2.28;;;;;;;;;;2076275;28;20033;-66
2022/09/13 05:50:22;;;;;;;3.92;2.25;;;;;;;;;;2075960;28;20537;-64
2022/09/13 05:51:41;;;;;;;8.05;2.80;;;;;;;;;;2077344;28;20045;-64
2022/09/13 05:52:59;;;;;;;3.33;2.20;;;;;;;;;;2076259;28;20421;-64
2022/09/13 05:54:18;;;;;;;2.42;2.03;;;;;;;;;;2074655;28;20030;-65
2022/09/13 05:55:37;;;;;;;3.38;2.13;;;;;;;;;;2075957;28;20042;-65
2022/09/13 05:56:56;;;;;;;2.20;2.00;;;;;;;;;;2075621;28;20042;-64
2022/09/13 05:58:15;;;;;;;2.75;1.92;;;;;;;;;;2077503;28;20030;-64
2022/09/13 05:59:35;;;;;;;4.15;2.72;;;;;;;;;;2076925;28;20033;-65
2022/09/13 06:00:54;;;;;;;2.75;2.25;;;;;;;;;;2076172;28;20030;-64
2022/09/13 06:02:13;;;;;;;3.50;2.03;;;;;;;;;;2075890;28;20073;-64
2022/09/13 06:03:32;;;;;;;3.05;2.20;;;;;;;;;;2076887;28;20957;-65
2022/09/13 06:04:51;;;;;;;2.80;1.83;;;;;;;;;;2076199;28;20121;-65
2022/09/13 06:06:10;;;;;;;5.88;2.47;;;;;;;;;;2076400;28;20026;-65
2022/09/13 06:07:29;;;;;;;2.97;2.30;;;;;;;;;;2079852;28;20112;-65
2022/09/13 06:08:50;;;;;;;5.10;2.47;;;;;;;;;;2077753;28;20049;-65
2022/09/13 06:10:10;;;;;;;3.30;2.58;;;;;;;;;;2074553;28;20068;-66
2022/09/13 06:11:29;;;;;;;3.45;2.55;;;;;;;;;;2076062;28;20557;-66
2022/09/13 06:12:49;;;;;;;2.70;1.92;;;;;;;;;;2079169;28;20393;-66
2022/09/13 06:14:08;;;;;;;3.20;2.10;;;;;;;;;;2078411;28;20026;-67
2022/09/13 06:15:27;;;;;;;6.15;2.63;;;;;;;;;;2077894;28;20026;-65
2022/09/13 06:16:46;;;;;;;8.68;2.35;;;;;;;;;;2066996;28;20486;-65
2022/09/13 06:18:05;;;;;;;5.18;2.30;;;;;;;;;;2077150;28;20125;-65
2022/09/13 06:19:24;;;;;;;1.85;1.67;;;;;;;;;;2079062;28;20503;-66
2022/09/13 06:20:43;;;;;;;4.95;2.67;;;;;;;;;;2079259;28;20037;-65
2022/09/13 06:22:02;;;;;;;3.75;2.15;;;;;;;;;;2075015;28;20030;-65
2022/09/13 06:23:21;;;;;;;2.00;1.90;;;;;;;;;;2077029;28;20037;-65
2022/09/13 06:24:40;;;;;;;2.75;1.83;;;;;;;;;;2074819;28;20450;-65
2022/09/13 06:26:00;;;;;;;2.38;2.17;;;;;;;;;;2077220;28;20108;-66
2022/09/13 06:27:19;;;;;;;5.53;2.42;;;;;;;;;;2073037;28;20033;-64
2022/09/13 06:28:38;;;;;;;2.75;1.85;;;;;;;;;;2076955;28;20041;-64
2022/09/13 06:29:57;;;;;;;4.50;2.15;;;;;;;;;;2075130;28;20034;-64
2022/09/13 06:31:17;;;;;;;4.80;2.15;;;;;;;;;;2072519;28;20410;-65
2022/09/13 06:32:36;;;;;;;4.15;1.98;;;;;;;;;;2077913;28;20033;-64
2022/09/13 06:33:59;;;;;;;2.22;2.03;;;;;;;;;;2076863;28;20022;-65
2022/09/13 06:35:18;;;;;;;4.03;2.05;;;;;;;;;;2080416;28;20502;-64
2022/09/13 06:36:37;;;;;;;2.45;1.80;;;;;;;;;;2078441;28;20029;-65
2022/09/13 06:37:57;;;;;;;3.55;2.15;;;;;;;;;;2073231;28;20410;-65
2022/09/13 06:39:16;;;;;;;2.88;2.03;;;;;;;;;;2074023;28;20037;-65
2022/09/13 06:40:35;;;;;;;4.40;2.00;;;;;;;;;;2077010;28;20482;-64
2022/09/13 06:41:54;;;;;;;2.30;1.90;;;;;;;;;;2076765;28;20029;-65
2022/09/13 06:43:14;;;;;;;3.15;1.80;;;;;;;;;;2080036;28;20061;-65
2022/09/13 06:44:33;;;;;;;4.28;2.22;;;;;;;;;;2076225;28;20037;-66
2022/09/13 06:45:52;;;;;;;4.00;2.28;;;;;;;;;;2074719;28;20104;-65
2022/09/13 06:47:12;;;;;;;3.45;2.03;;;;;;;;;;2073732;28;20486;-65
2022/09/13 06:48:32;;;;;;;5.50;2.15;;;;;;;;;;2078008;28;20706;-65
2022/09/13 06:49:51;;;;;;;3.13;2.38;;;;;;;;;;2078672;28;20029;-66
2022/09/13 06:51:11;;;;;;;3.60;2.40;;;;;;;;;;2077965;28;20029;-66
2022/09/13 06:52:31;;;;;;;2.00;1.80;;;;;;;;;;2074094;28;20034;-65
2022/09/13 06:53:51;;;;;;;2.30;2.08;;;;;;;;;;2076780;28;20486;-66
2022/09/13 06:55:10;;;;;;;3.00;1.85;;;;;;;;;;2078507;28;20037;-65
2022/09/13 06:56:31;;;;;;;2.10;1.70;;;;;;;;;;2071656;28;20030;-65
2022/09/13 06:57:50;;;;;;;2.92;1.90;;;;;;;;;;2072659;28;20030;-65
2022/09/13 06:59:09;;;;;;;4.10;2.00;;;;;;;;;;2078617;28;20418;-65
2022/09/13 07:00:28;;;;;;;2.88;1.85;;;;;;;;;;2077005;28;20335;-65
2022/09/13 07:01:47;;;;;;;4.97;1.80;;;;;;;;;;2076407;28;20025;-65
2022/09/13 07:03:06;;;;;;;3.70;2.50;;;;;;;;;;2079120;28;20033;-65
2022/09/13 07:04:30;;;;;;;2.58;1.95;;;;;;;;;;2077504;28;20026;-64
2022/09/13 07:05:49;;;;;;;3.67;1.60;;;;;;;;;;2075968;28;20088;-65
2022/09/13 07:07:08;;;;;;;2.22;1.90;;;;;;;;;;2074661;28;20062;-65
2022/09/13 07:08:27;;;;;;;1.83;1.73;;;;;;;;;;2073679;28;20037;-65
2022/09/13 07:09:46;;;;;;;5.40;1.77;;;;;;;;;;2079439;28;20547;-66
2022/09/13 07:11:05;;;;;;;3.33;1.90;;;;;;;;;;2074283;28;20026;-64
2022/09/13 07:12:24;;;;;;;4.10;1.92;;;;;;;;;;2075570;28;20390;-64
2022/09/13 07:13:53;;;;;;;5.15;1.80;;;;;;;;;;2073762;28;20400;-65
2022/09/13 07:15:12;;;;;;;6.53;1.98;;;;;;;;;;2071292;28;20029;-64
2022/09/13 07:16:33;;;;;;;3.00;1.95;;;;;;;;;;2075703;28;20108;-64
2022/09/13 07:17:52;;;;;;;3.03;2.30;;;;;;;;;;2076285;28;20140;-64
2022/09/13 07:19:15;;;;;;;2.80;2.15;;;;;;;;;;2079471;28;20120;-65
2022/09/13 07:20:34;;;;;;;4.43;1.80;;;;;;;;;;2079938;28;20127;-65
2022/09/13 07:21:54;;;;;;;6.85;2.20;;;;;;;;;;2076968;28;20030;-65
2022/09/13 07:23:13;;;;;;;3.50;2.15;;;;;;;;;;2075059;28;20037;-66
2022/09/13 07:24:32;;;;;;;2.70;2.13;;;;;;;;;;2073556;28;20042;-65
2022/09/13 07:26:00;;;;;;;4.00;2.38;;;;;;;;;;2076533;28;20057;-65
2022/09/13 07:27:19;;;;;;;3.35;2.17;;;;;;;;;;2073238;28;20030;-66
2022/09/13 07:28:39;;;;;;;4.05;2.45;;;;;;;;;;2076244;28;20033;-66
2022/09/13 07:29:58;;;;;;;6.90;2.80;;;;;;;;;;2074110;28;20053;-65
2022/09/13 07:31:19;;;;;;;7.80;2.60;;;;;;;;;;2066044;28;20495;-66
2022/09/13 07:32:38;;;;;;;7.07;2.90;;;;;;;;;;2064167;28;20491;-65
2022/09/13 07:34:01;;;;;;;3.17;2.50;;;;;;;;;;2071567;28;20037;-65
2022/09/13 07:35:20;;;;;;;6.78;2.65;;;;;;;;;;2077647;28;20049;-65
2022/09/13 07:36:39;;;;;;;3.65;2.63;;;;;;;;;;2079423;28;20034;-65
2022/09/13 07:37:58;;;;;;;6.60;2.70;;;;;;;;;;2074838;28;20041;-65
2022/09/13 07:39:17;;;;;;;5.07;2.78;;;;;;;;;;2076074;28;20037;-66
2022/09/13 07:40:36;;;;;;;5.68;2.70;;;;;;;;;;2067908;28;20041;-66
2022/09/13 07:41:56;;;;;;;3.67;2.70;;;;;;;;;;2076084;28;20033;-65
2022/09/13 07:43:15;;;;;;;5.28;2.90;;;;;;;;;;2076098;28;20069;-65
2022/09/13 07:44:34;;;;;;;4.15;2.92;;;;;;;;;;2074895;28;20022;-65
2022/09/13 07:46:01;;;;;;;7.15;3.10;;;;;;;;;;2072285;28;20037;-65
2022/09/13 07:47:20;;;;;;;2.92;2.55;;;;;;;;;;2075550;28;20018;-65
2022/09/13 07:48:39;;;;;;;3.28;3.00;;;;;;;;;;2077677;28;20029;-65
2022/09/13 07:49:58;;;;;;;6.88;3.58;;;;;;;;;;2075705;28;20395;-66
2022/09/13 07:51:19;;;;;;;5.50;3.03;;;;;;;;;;2075604;28;20033;-65
2022/09/13 07:52:39;;;;;;;6.22;3.20;;;;;;;;;;2073873;28;20506;-66
2022/09/13 07:53:59;;;;;;;4.90;3.70;;;;;;;;;;2076674;28;20037;-67
2022/09/13 07:55:18;;;;;;;7.35;3.33;;;;;;;;;;2075443;28;20029;-66
2022/09/13 07:56:38;;;;;;;4.78;3.60;;;;;;;;;;2072762;28;20509;-66
2022/09/13 07:57:58;;;;;;;6.57;3.33;;;;;;;;;;2072665;28;20389;-66
2022/09/13 07:59:18;;;;;;;4.93;2.92;;;;;;;;;;2076372;28;20030;-66
2022/09/13 08:00:37;;;;;;;7.80;3.90;;;;;;;;;;2074178;28;20025;-66
2022/09/13 08:01:56;;;;;;;7.15;4.10;;;;;;;;;;2073189;28;20053;-66
2022/09/13 08:03:15;;;;;;;4.72;2.08;;;;;;;;;;2076379;28;20429;-67
2022/09/13 08:04:34;;;;;;;6.45;2.65;;;;;;;;;;2077506;28;20030;-67
2022/09/13 08:05:53;;;;;;;2.95;1.95;;;;;;;;;;2075123;28;20029;-67
2022/09/13 08:07:13;;;;;;;5.75;2.50;;;;;;;;;;2073865;28;20486;-67
2022/09/13 08:08:33;;;;;;;3.85;2.33;;;;;;;;;;2068212;28;20546;-67
2022/09/13 08:09:55;;;;;;;5.15;2.78;;;;;;;;;;2073884;28;20064;-66